HTIR

Iringa Airport

Nduli, Tanzania
METAR HTIR 140000Z 00000KT 9999 SCT016 FEW017CB 18/17 Q1022
Observed Flight Rules
Dec-14 @ 00:00 UTC (45 minutes ago) Visual Flight Rules
Visibility Clouds
10,000+ meters
  • Scattered at 1,600' AGL
  • Few at 1,700' AGL
Temperatures Readings
Current 18°C / 64°F
Dewpoint 17°C / 63°F
Humidity 94%
Altimeter 30.18" Hg
Pressure 1022 hPa
Elevation 1428
METAR HTIR 140000Z 00000KT 9999 SCT016 FEW017CB 18/17 Q1022
Observed Flight Rules
Dec-14 @ 00:00 UTC
(45 minutes ago)
VFR
Clouds
  • Scattered at 1,600' AGL
  • Few at 1,700' AGL
Temperature Dewpoint
18°C / 64°F 17°C / 63°F
Humidity Altimeter Pressure
94% 30.18" Hg 1022 hPa